sensor_id;sensor_type;location;lat;lon;timestamp;pressure;altitude;pressure_sealevel;temperature;humidity
49455;BME280;49011;64.658;21.218;2022-08-21T00:00:17;101035.21;;;17.60;92.75
49455;BME280;49011;64.658;21.218;2022-08-21T00:02:48;101034.99;;;18.09;90.06
49455;BME280;49011;64.658;21.218;2022-08-21T00:05:17;101038.11;;;18.08;91.61
49455;BME280;49011;64.658;21.218;2022-08-21T00:07:45;101036.22;;;17.83;92.96
49455;BME280;49011;64.658;21.218;2022-08-21T00:10:14;101034.67;;;17.75;93.32
49455;BME280;49011;64.658;21.218;2022-08-21T00:12:43;101030.74;;;18.19;92.05
49455;BME280;49011;64.658;21.218;2022-08-21T00:15:13;101030.65;;;17.54;94.32
49455;BME280;49011;64.658;21.218;2022-08-21T00:17:41;101030.91;;;17.74;93.91
49455;BME280;49011;64.658;21.218;2022-08-21T00:20:11;101029.12;;;17.52;96.04
49455;BME280;49011;64.658;21.218;2022-08-21T00:22:39;101029.12;;;17.43;98.03
49455;BME280;49011;64.658;21.218;2022-08-21T00:25:07;101030.84;;;17.44;97.96
49455;BME280;49011;64.658;21.218;2022-08-21T00:27:35;101029.31;;;17.44;98.89
49455;BME280;49011;64.658;21.218;2022-08-21T00:30:05;101031.60;;;18.20;95.65
49455;BME280;49011;64.658;21.218;2022-08-21T00:32:33;101028.64;;;17.69;97.91
49455;BME280;49011;64.658;21.218;2022-08-21T00:35:00;101027.96;;;17.51;99.82
49455;BME280;49011;64.658;21.218;2022-08-21T00:37:27;101024.98;;;17.56;99.68
49455;BME280;49011;64.658;21.218;2022-08-21T00:39:55;101021.90;;;17.55;99.18
49455;BME280;49011;64.658;21.218;2022-08-21T00:42:22;101019.35;;;18.09;98.11
49455;BME280;49011;64.658;21.218;2022-08-21T00:44:50;101016.40;;;17.83;98.15
49455;BME280;49011;64.658;21.218;2022-08-21T00:47:18;101014.13;;;18.23;97.05
49455;BME280;49011;64.658;21.218;2022-08-21T00:49:46;101015.70;;;18.25;97.11
49455;BME280;49011;64.658;21.218;2022-08-21T00:52:20;101016.33;;;18.21;97.96
49455;BME280;49011;64.658;21.218;2022-08-21T00:54:50;101016.39;;;18.27;98.72
49455;BME280;49011;64.658;21.218;2022-08-21T00:57:21;101012.01;;;17.55;99.89
49455;BME280;49011;64.658;21.218;2022-08-21T00:59:52;101012.77;;;17.70;100.00
49455;BME280;49011;64.658;21.218;2022-08-21T01:02:20;101004.80;;;17.92;100.00
49455;BME280;49011;64.658;21.218;2022-08-21T01:04:48;101008.28;;;18.04;100.00
49455;BME280;49011;64.658;21.218;2022-08-21T01:07:15;101007.97;;;18.10;99.75
49455;BME280;49011;64.658;21.218;2022-08-21T01:09:46;101011.19;;;17.68;100.00
49455;BME280;49011;64.658;21.218;2022-08-21T01:12:14;101013.51;;;17.74;100.00
49455;BME280;49011;64.658;21.218;2022-08-21T01:14:42;101012.33;;;17.93;100.00
49455;BME280;49011;64.658;21.218;2022-08-21T01:17:10;101012.41;;;18.15;99.13
49455;BME280;49011;64.658;21.218;2022-08-21T01:19:39;101009.91;;;17.56;100.00
49455;BME280;49011;64.658;21.218;2022-08-21T01:22:06;101002.43;;;17.99;100.00
49455;BME280;49011;64.658;21.218;2022-08-21T01:24:34;101002.17;;;17.41;100.00
49455;BME280;49011;64.658;21.218;2022-08-21T01:27:03;100999.89;;;17.94;100.00
49455;BME280;49011;64.658;21.218;2022-08-21T01:29:34;101000.60;;;17.84;100.00
49455;BME280;49011;64.658;21.218;2022-08-21T01:32:06;101005.07;;;18.08;100.00
49455;BME280;49011;64.658;21.218;2022-08-21T01:34:38;100998.85;;;17.58;100.00
49455;BME280;49011;64.658;21.218;2022-08-21T01:37:05;100999.74;;;17.97;100.00
49455;BME280;49011;64.658;21.218;2022-08-21T01:39:33;101002.78;;;17.74;100.00
49455;BME280;49011;64.658;21.218;2022-08-21T01:42:00;101001.06;;;17.46;100.00
49455;BME280;49011;64.658;21.218;2022-08-21T01:44:28;101001.12;;;17.61;100.00
49455;BME280;49011;64.658;21.218;2022-08-21T01:46:58;101000.46;;;17.82;100.00
49455;BME280;49011;64.658;21.218;2022-08-21T01:49:25;101002.96;;;17.98;100.00
49455;BME280;49011;64.658;21.218;2022-08-21T01:51:53;101001.86;;;18.01;100.00
49455;BME280;49011;64.658;21.218;2022-08-21T01:54:20;101004.89;;;18.02;100.00
49455;BME280;49011;64.658;21.218;2022-08-21T01:56:51;100995.72;;;18.12;100.00
49455;BME280;49011;64.658;21.218;2022-08-21T01:59:19;101001.36;;;17.98;100.00
49455;BME280;49011;64.658;21.218;2022-08-21T02:01:46;100994.16;;;17.92;100.00
49455;BME280;49011;64.658;21.218;2022-08-21T02:04:14;100993.56;;;17.76;100.00
49455;BME280;49011;64.658;21.218;2022-08-21T02:06:41;100988.64;;;18.19;100.00
49455;BME280;49011;64.658;21.218;2022-08-21T02:09:10;100987.93;;;18.04;100.00
49455;BME280;49011;64.658;21.218;2022-08-21T02:11:38;100985.15;;;18.06;100.00
49455;BME280;49011;64.658;21.218;2022-08-21T02:14:05;100996.29;;;18.27;100.00
49455;BME280;49011;64.658;21.218;2022-08-21T02:16:32;100995.77;;;17.92;100.00
49455;BME280;49011;64.658;21.218;2022-08-21T02:18:59;101001.72;;;17.75;100.00
49455;BME280;49011;64.658;21.218;2022-08-21T02:21:27;100997.17;;;17.93;100.00
49455;BME280;49011;64.658;21.218;2022-08-21T02:23:54;101003.66;;;18.48;100.00
49455;BME280;49011;64.658;21.218;2022-08-21T02:26:21;100996.19;;;18.04;100.00
49455;BME280;49011;64.658;21.218;2022-08-21T02:28:48;100998.16;;;18.01;100.00
49455;BME280;49011;64.658;21.218;2022-08-21T02:31:16;100996.69;;;17.96;100.00
49455;BME280;49011;64.658;21.218;2022-08-21T02:33:43;100991.68;;;17.61;100.00
49455;BME280;49011;64.658;21.218;2022-08-21T02:36:11;100988.91;;;17.86;100.00
49455;BME280;49011;64.658;21.218;2022-08-21T02:38:40;100987.68;;;17.51;100.00
49455;BME280;49011;64.658;21.218;2022-08-21T02:41:10;100985.00;;;17.73;100.00
49455;BME280;49011;64.658;21.218;2022-08-21T02:43:38;100987.66;;;17.62;100.00
49455;BME280;49011;64.658;21.218;2022-08-21T02:46:06;100995.61;;;17.68;100.00
49455;BME280;49011;64.658;21.218;2022-08-21T02:48:35;100998.81;;;17.94;100.00
49455;BME280;49011;64.658;21.218;2022-08-21T02:51:05;101001.49;;;18.04;100.00
49455;BME280;49011;64.658;21.218;2022-08-21T02:53:34;100994.24;;;17.62;100.00
49455;BME280;49011;64.658;21.218;2022-08-21T02:56:05;100996.79;;;17.38;100.00
49455;BME280;49011;64.658;21.218;2022-08-21T02:58:35;100995.89;;;17.53;100.00
49455;BME280;49011;64.658;21.218;2022-08-21T03:01:03;100994.18;;;17.95;100.00
49455;BME280;49011;64.658;21.218;2022-08-21T03:03:31;100990.80;;;17.95;100.00
49455;BME280;49011;64.658;21.218;2022-08-21T03:05:58;100996.46;;;17.98;100.00
49455;BME280;49011;64.658;21.218;2022-08-21T03:08:25;100997.94;;;18.36;99.88
49455;BME280;49011;64.658;21.218;2022-08-21T03:10:55;100998.47;;;17.75;100.00
49455;BME280;49011;64.658;21.218;2022-08-21T03:13:22;101001.26;;;17.74;100.00
49455;BME280;49011;64.658;21.218;2022-08-21T03:15:50;101000.34;;;18.05;100.00
49455;BME280;49011;64.658;21.218;2022-08-21T03:18:18;101007.00;;;18.15;100.00
49455;BME280;49011;64.658;21.218;2022-08-21T03:20:46;101009.11;;;17.81;100.00
49455;BME280;49011;64.658;21.218;2022-08-21T03:23:15;101001.83;;;18.34;100.00
49455;BME280;49011;64.658;21.218;2022-08-21T03:25:44;101006.57;;;17.72;100.00
49455;BME280;49011;64.658;21.218;2022-08-21T03:28:14;101009.27;;;18.14;100.00
49455;BME280;49011;64.658;21.218;2022-08-21T03:30:44;101005.69;;;17.95;100.00
49455;BME280;49011;64.658;21.218;2022-08-21T03:33:12;101008.41;;;18.06;100.00
49455;BME280;49011;64.658;21.218;2022-08-21T03:35:41;101010.32;;;18.17;100.00
49455;BME280;49011;64.658;21.218;2022-08-21T03:38:09;101012.32;;;18.09;99.58
49455;BME280;49011;64.658;21.218;2022-08-21T03:40:36;101009.94;;;18.15;100.00
49455;BME280;49011;64.658;21.218;2022-08-21T03:43:04;101007.15;;;18.60;98.71
49455;BME280;49011;64.658;21.218;2022-08-21T03:45:31;101006.99;;;18.05;100.00
49455;BME280;49011;64.658;21.218;2022-08-21T03:48:01;101001.71;;;18.29;100.00
49455;BME280;49011;64.658;21.218;2022-08-21T03:50:32;101002.47;;;18.04;100.00
49455;BME280;49011;64.658;21.218;2022-08-21T03:53:00;101005.79;;;18.27;98.71
49455;BME280;49011;64.658;21.218;2022-08-21T03:55:28;101004.10;;;18.59;98.56
49455;BME280;49011;64.658;21.218;2022-08-21T03:57:55;101002.31;;;17.98;100.00
49455;BME280;49011;64.658;21.218;2022-08-21T04:00:22;101004.21;;;18.78;98.14
49455;BME280;49011;64.658;21.218;2022-08-21T04:02:50;101003.69;;;18.17;100.00
49455;BME280;49011;64.658;21.218;2022-08-21T04:05:19;101003.15;;;17.98;100.00
49455;BME280;49011;64.658;21.218;2022-08-21T04:07:47;100999.27;;;18.20;99.67
49455;BME280;49011;64.658;21.218;2022-08-21T04:10:15;101001.29;;;17.91;100.00
49455;BME280;49011;64.658;21.218;2022-08-21T04:12:42;100996.09;;;18.05;100.00
49455;BME280;49011;64.658;21.218;2022-08-21T04:15:10;100996.84;;;18.20;100.00
49455;BME280;49011;64.658;21.218;2022-08-21T04:17:37;100999.62;;;18.08;100.00
49455;BME280;49011;64.658;21.218;2022-08-21T04:20:05;100997.77;;;17.92;100.00
49455;BME280;49011;64.658;21.218;2022-08-21T04:22:32;100998.99;;;18.22;99.64
49455;BME280;49011;64.658;21.218;2022-08-21T04:24:59;101002.69;;;18.10;99.90
49455;BME280;49011;64.658;21.218;2022-08-21T04:27:27;101003.28;;;18.35;98.38
49455;BME280;49011;64.658;21.218;2022-08-21T04:29:54;100998.81;;;18.97;96.62
49455;BME280;49011;64.658;21.218;2022-08-21T04:32:22;100997.78;;;18.58;98.82
49455;BME280;49011;64.658;21.218;2022-08-21T04:34:50;100996.77;;;18.17;99.11
49455;BME280;49011;64.658;21.218;2022-08-21T04:37:17;100997.98;;;18.36;99.00
49455;BME280;49011;64.658;21.218;2022-08-21T04:39:44;100999.53;;;18.03;100.00
49455;BME280;49011;64.658;21.218;2022-08-21T04:42:11;100999.42;;;18.02;100.00
49455;BME280;49011;64.658;21.218;2022-08-21T04:44:38;100997.03;;;18.39;98.82
49455;BME280;49011;64.658;21.218;2022-08-21T04:47:05;100997.71;;;18.26;97.83
49455;BME280;49011;64.658;21.218;2022-08-21T04:49:32;100999.25;;;17.70;100.00
49455;BME280;49011;64.658;21.218;2022-08-21T04:52:00;100996.70;;;18.15;100.00
49455;BME280;49011;64.658;21.218;2022-08-21T04:54:28;100998.55;;;18.68;98.65
49455;BME280;49011;64.658;21.218;2022-08-21T04:56:59;100999.14;;;18.08;98.97
49455;BME280;49011;64.658;21.218;2022-08-21T04:59:30;101001.90;;;18.18;100.00
49455;BME280;49011;64.658;21.218;2022-08-21T05:02:00;101005.58;;;18.59;99.23
49455;BME280;49011;64.658;21.218;2022-08-21T05:04:30;101000.44;;;18.80;96.96
49455;BME280;49011;64.658;21.218;2022-08-21T05:07:03;101004.00;;;18.60;98.51
49455;BME280;49011;64.658;21.218;2022-08-21T05:09:32;101003.32;;;18.50;98.74
49455;BME280;49011;64.658;21.218;2022-08-21T05:12:01;101004.19;;;18.30;98.89
49455;BME280;49011;64.658;21.218;2022-08-21T05:14:29;100998.61;;;18.11;100.00
49455;BME280;49011;64.658;21.218;2022-08-21T05:16:56;101001.87;;;18.43;97.41
49455;BME280;49011;64.658;21.218;2022-08-21T05:19:23;101000.24;;;18.05;98.27
49455;BME280;49011;64.658;21.218;2022-08-21T05:21:50;101000.05;;;17.96;100.00
49455;BME280;49011;64.658;21.218;2022-08-21T05:24:18;101003.38;;;17.99;100.00
49455;BME280;49011;64.658;21.218;2022-08-21T05:26:45;101006.36;;;18.09;100.00
49455;BME280;49011;64.658;21.218;2022-08-21T05:29:14;101007.31;;;17.92;100.00
49455;BME280;49011;64.658;21.218;2022-08-21T05:31:41;101004.72;;;18.11;100.00
49455;BME280;49011;64.658;21.218;2022-08-21T05:34:09;100999.27;;;17.48;100.00
49455;BME280;49011;64.658;21.218;2022-08-21T05:36:37;100993.86;;;18.19;100.00
49455;BME280;49011;64.658;21.218;2022-08-21T05:39:05;100993.89;;;18.05;100.00
49455;BME280;49011;64.658;21.218;2022-08-21T05:41:32;100993.96;;;18.29;100.00
49455;BME280;49011;64.658;21.218;2022-08-21T05:43:59;100993.21;;;17.83;100.00
49455;BME280;49011;64.658;21.218;2022-08-21T05:46:26;100996.68;;;18.03;100.00
49455;BME280;49011;64.658;21.218;2022-08-21T05:48:53;100993.81;;;18.08;100.00
49455;BME280;49011;64.658;21.218;2022-08-21T05:51:20;100993.73;;;17.68;100.00
49455;BME280;49011;64.658;21.218;2022-08-21T05:53:48;100992.22;;;17.86;100.00
49455;BME280;49011;64.658;21.218;2022-08-21T05:56:16;100989.52;;;18.05;100.00
49455;BME280;49011;64.658;21.218;2022-08-21T05:58:43;100993.34;;;18.15;99.21
49455;BME280;49011;64.658;21.218;2022-08-21T06:01:11;100992.99;;;17.64;100.00
49455;BME280;49011;64.658;21.218;2022-08-21T06:03:40;100990.01;;;17.94;100.00
49455;BME280;49011;64.658;21.218;2022-08-21T06:06:07;100990.97;;;17.91;99.89
49455;BME280;49011;64.658;21.218;2022-08-21T06:08:36;100989.06;;;18.40;98.83
49455;BME280;49011;64.658;21.218;2022-08-21T06:11:04;100994.07;;;18.28;97.98
49455;BME280;49011;64.658;21.218;2022-08-21T06:13:32;100990.09;;;18.21;97.91
49455;BME280;49011;64.658;21.218;2022-08-21T06:16:02;100988.73;;;18.02;98.70
49455;BME280;49011;64.658;21.218;2022-08-21T06:18:30;100988.85;;;18.32;97.41
49455;BME280;49011;64.658;21.218;2022-08-21T06:20:57;100985.79;;;17.69;100.00
49455;BME280;49011;64.658;21.218;2022-08-21T06:23:24;100988.34;;;18.09;100.00
49455;BME280;49011;64.658;21.218;2022-08-21T06:25:52;100986.34;;;18.11;100.00
49455;BME280;49011;64.658;21.218;2022-08-21T06:28:20;100986.33;;;17.79;100.00
49455;BME280;49011;64.658;21.218;2022-08-21T06:30:47;100987.39;;;17.94;100.00
49455;BME280;49011;64.658;21.218;2022-08-21T06:33:14;100992.05;;;18.01;100.00
49455;BME280;49011;64.658;21.218;2022-08-21T06:35:41;100988.92;;;17.80;100.00
49455;BME280;49011;64.658;21.218;2022-08-21T06:38:09;100982.30;;;17.50;100.00
49455;BME280;49011;64.658;21.218;2022-08-21T06:40:37;100985.61;;;17.98;100.00
49455;BME280;49011;64.658;21.218;2022-08-21T06:43:07;100982.51;;;18.05;99.18
49455;BME280;49011;64.658;21.218;2022-08-21T06:45:34;100983.42;;;17.44;100.00
49455;BME280;49011;64.658;21.218;2022-08-21T06:48:02;100982.45;;;17.65;100.00
49455;BME280;49011;64.658;21.218;2022-08-21T06:50:30;100984.29;;;17.44;100.00
49455;BME280;49011;64.658;21.218;2022-08-21T06:53:00;100983.94;;;17.42;100.00
49455;BME280;49011;64.658;21.218;2022-08-21T06:55:28;100984.65;;;17.50;100.00
49455;BME280;49011;64.658;21.218;2022-08-21T06:57:55;100979.72;;;17.94;100.00
49455;BME280;49011;64.658;21.218;2022-08-21T07:00:22;100979.77;;;17.52;100.00
49455;BME280;49011;64.658;21.218;2022-08-21T07:02:49;100979.25;;;17.54;100.00
49455;BME280;49011;64.658;21.218;2022-08-21T07:05:17;100976.72;;;17.81;100.00
49455;BME280;49011;64.658;21.218;2022-08-21T07:07:45;100975.84;;;18.33;98.86
49455;BME280;49011;64.658;21.218;2022-08-21T07:10:13;100973.36;;;18.62;97.16
49455;BME280;49011;64.658;21.218;2022-08-21T07:12:41;100978.12;;;18.28;98.34
49455;BME280;49011;64.658;21.218;2022-08-21T07:15:09;100980.98;;;17.95;98.76
49455;BME280;49011;64.658;21.218;2022-08-21T07:17:37;100973.97;;;17.47;100.00
49455;BME280;49011;64.658;21.218;2022-08-21T07:20:05;100970.67;;;18.44;97.15
49455;BME280;49011;64.658;21.218;2022-08-21T07:22:35;100972.56;;;18.12;98.17
49455;BME280;49011;64.658;21.218;2022-08-21T07:25:06;100972.39;;;17.97;99.25
49455;BME280;49011;64.658;21.218;2022-08-21T07:27:33;100970.21;;;18.67;96.17
49455;BME280;49011;64.658;21.218;2022-08-21T07:30:00;100962.18;;;18.16;98.30
49455;BME280;49011;64.658;21.218;2022-08-21T07:32:28;100961.62;;;18.19;98.00
49455;BME280;49011;64.658;21.218;2022-08-21T07:34:55;100962.62;;;18.22;98.46
49455;BME280;49011;64.658;21.218;2022-08-21T07:37:22;100962.13;;;18.06;99.71
49455;BME280;49011;64.658;21.218;2022-08-21T07:39:49;100959.98;;;18.25;98.53
49455;BME280;49011;64.658;21.218;2022-08-21T07:42:17;100963.70;;;17.94;100.00
49455;BME280;49011;64.658;21.218;2022-08-21T07:44:44;100959.40;;;18.24;99.93
49455;BME280;49011;64.658;21.218;2022-08-21T07:47:11;100959.56;;;18.45;99.14
49455;BME280;49011;64.658;21.218;2022-08-21T07:49:38;100953.46;;;18.65;96.35
49455;BME280;49011;64.658;21.218;2022-08-21T07:52:05;100956.72;;;18.28;98.27
49455;BME280;49011;64.658;21.218;2022-08-21T07:54:33;100953.42;;;18.77;97.89
49455;BME280;49011;64.658;21.218;2022-08-21T07:57:01;100960.08;;;18.50;98.78
49455;BME280;49011;64.658;21.218;2022-08-21T07:59:29;100957.48;;;18.08;98.30
49455;BME280;49011;64.658;21.218;2022-08-21T08:01:56;100961.57;;;18.49;96.81
49455;BME280;49011;64.658;21.218;2022-08-21T08:04:24;100967.16;;;18.98;95.46
49455;BME280;49011;64.658;21.218;2022-08-21T08:06:52;100969.02;;;18.50;99.40
49455;BME280;49011;64.658;21.218;2022-08-21T08:09:19;100970.34;;;18.44;98.95
49455;BME280;49011;64.658;21.218;2022-08-21T08:11:47;100971.32;;;18.91;95.19
49455;BME280;49011;64.658;21.218;2022-08-21T08:14:14;100970.41;;;18.54;96.20
49455;BME280;49011;64.658;21.218;2022-08-21T08:16:42;100972.70;;;17.88;100.00
49455;BME280;49011;64.658;21.218;2022-08-21T08:19:10;100967.77;;;18.34;97.88
49455;BME280;49011;64.658;21.218;2022-08-21T08:21:37;100965.02;;;17.90;99.46
49455;BME280;49011;64.658;21.218;2022-08-21T08:24:05;100966.86;;;18.00;98.96
49455;BME280;49011;64.658;21.218;2022-08-21T08:26:32;100971.52;;;17.81;99.15
49455;BME280;49011;64.658;21.218;2022-08-21T08:29:00;100970.04;;;18.44;96.16
49455;BME280;49011;64.658;21.218;2022-08-21T08:31:27;100970.22;;;18.24;97.63
49455;BME280;49011;64.658;21.218;2022-08-21T08:33:55;100970.27;;;18.80;95.42
49455;BME280;49011;64.658;21.218;2022-08-21T08:36:32;100972.39;;;17.98;99.21
49455;BME280;49011;64.658;21.218;2022-08-21T08:38:59;100966.32;;;17.87;98.70
49455;BME280;49011;64.658;21.218;2022-08-21T08:41:28;100967.09;;;18.68;96.06
49455;BME280;49011;64.658;21.218;2022-08-21T08:43:59;100967.77;;;17.91;97.65
49455;BME280;49011;64.658;21.218;2022-08-21T08:46:33;100963.60;;;18.03;97.03
49455;BME280;49011;64.658;21.218;2022-08-21T08:49:08;100963.71;;;18.85;93.75
49455;BME280;49011;64.658;21.218;2022-08-21T08:51:43;100962.65;;;18.41;95.80
49455;BME280;49011;64.658;21.218;2022-08-21T08:54:15;100964.09;;;17.81;96.96
49455;BME280;49011;64.658;21.218;2022-08-21T08:56:45;100961.79;;;18.08;97.82
49455;BME280;49011;64.658;21.218;2022-08-21T08:59:16;100961.32;;;18.37;95.50
49455;BME280;49011;64.658;21.218;2022-08-21T09:01:45;100962.86;;;18.59;96.56
49455;BME280;49011;64.658;21.218;2022-08-21T09:04:14;100958.10;;;18.68;94.51
49455;BME280;49011;64.658;21.218;2022-08-21T09:06:57;100959.35;;;18.63;94.49
49455;BME280;49011;64.658;21.218;2022-08-21T09:09:38;100962.34;;;18.84;91.92
49455;BME280;49011;64.658;21.218;2022-08-21T09:12:15;100962.65;;;18.54;94.47
49455;BME280;49011;64.658;21.218;2022-08-21T09:14:54;100960.94;;;18.81;92.82
49455;BME280;49011;64.658;21.218;2022-08-21T09:17:39;100955.75;;;18.12;95.88
49455;BME280;49011;64.658;21.218;2022-08-21T09:20:16;100954.05;;;18.15;94.86
49455;BME280;49011;64.658;21.218;2022-08-21T09:22:57;100954.65;;;18.87;91.92
49455;BME280;49011;64.658;21.218;2022-08-21T09:25:32;100953.66;;;18.81;91.87
49455;BME280;49011;64.658;21.218;2022-08-21T09:28:00;100953.97;;;17.95;96.52
49455;BME280;49011;64.658;21.218;2022-08-21T09:30:30;100952.37;;;18.06;96.65
49455;BME280;49011;64.658;21.218;2022-08-21T09:32:58;100946.77;;;18.65;93.01
49455;BME280;49011;64.658;21.218;2022-08-21T09:35:26;100945.14;;;18.27;95.93
49455;BME280;49011;64.658;21.218;2022-08-21T09:37:56;100946.79;;;18.21;96.69
49455;BME280;49011;64.658;21.218;2022-08-21T09:40:36;100943.31;;;18.41;95.01
49455;BME280;49011;64.658;21.218;2022-08-21T09:43:07;100940.16;;;18.05;96.89
49455;BME280;49011;64.658;21.218;2022-08-21T09:45:44;100939.96;;;18.73;94.45
49455;BME280;49011;64.658;21.218;2022-08-21T09:48:14;100935.31;;;18.13;95.73
49455;BME280;49011;64.658;21.218;2022-08-21T09:50:42;100931.63;;;18.36;95.93
49455;BME280;49011;64.658;21.218;2022-08-21T09:53:17;100931.75;;;18.18;95.80
49455;BME280;49011;64.658;21.218;2022-08-21T09:55:52;100929.22;;;18.27;95.94
49455;BME280;49011;64.658;21.218;2022-08-21T09:58:20;100930.07;;;18.89;91.67
49455;BME280;49011;64.658;21.218;2022-08-21T10:00:57;100928.18;;;18.37;93.98
49455;BME280;49011;64.658;21.218;2022-08-21T10:03:25;100925.96;;;17.96;96.66
49455;BME280;49011;64.658;21.218;2022-08-21T10:05:56;100921.69;;;18.46;93.83
49455;BME280;49011;64.658;21.218;2022-08-21T10:08:27;100922.23;;;18.07;95.65
49455;BME280;49011;64.658;21.218;2022-08-21T10:10:57;100924.91;;;18.49;94.04
49455;BME280;49011;64.658;21.218;2022-08-21T10:13:40;100925.51;;;18.06;96.34
49455;BME280;49011;64.658;21.218;2022-08-21T10:16:19;100923.29;;;18.64;91.80
49455;BME280;49011;64.658;21.218;2022-08-21T10:19:00;100922.76;;;18.94;91.72
49455;BME280;49011;64.658;21.218;2022-08-21T10:21:33;100921.47;;;18.69;94.21
49455;BME280;49011;64.658;21.218;2022-08-21T10:24:09;100918.94;;;18.37;93.92
49455;BME280;49011;64.658;21.218;2022-08-21T10:26:48;100920.85;;;18.18;94.69
49455;BME280;49011;64.658;21.218;2022-08-21T10:29:35;100920.40;;;18.40;93.33
49455;BME280;49011;64.658;21.218;2022-08-21T10:32:15;100918.01;;;18.35;92.74
49455;BME280;49011;64.658;21.218;2022-08-21T10:34:53;100916.80;;;18.49;93.80
49455;BME280;49011;64.658;21.218;2022-08-21T10:37:33;100916.47;;;18.49;93.02
49455;BME280;49011;64.658;21.218;2022-08-21T10:40:15;100911.47;;;18.34;93.15
49455;BME280;49011;64.658;21.218;2022-08-21T10:42:52;100909.29;;;18.75;91.15
49455;BME280;49011;64.658;21.218;2022-08-21T10:45:38;100912.59;;;18.70;91.44
49455;BME280;49011;64.658;21.218;2022-08-21T10:48:16;100911.06;;;18.56;91.86
49455;BME280;49011;64.658;21.218;2022-08-21T10:50:53;100907.06;;;18.71;91.86
49455;BME280;49011;64.658;21.218;2022-08-21T10:53:34;100908.35;;;18.15;96.06
49455;BME280;49011;64.658;21.218;2022-08-21T10:56:12;100907.68;;;18.44;93.02
49455;BME280;49011;64.658;21.218;2022-08-21T10:58:47;100905.57;;;19.04;91.01
49455;BME280;49011;64.658;21.218;2022-08-21T11:01:22;100907.17;;;17.95;96.05
49455;BME280;49011;64.658;21.218;2022-08-21T11:04:07;100903.24;;;18.65;95.48
49455;BME280;49011;64.658;21.218;2022-08-21T11:06:38;100901.00;;;18.84;91.99
49455;BME280;49011;64.658;21.218;2022-08-21T11:09:12;100901.98;;;19.03;91.36
49455;BME280;49011;64.658;21.218;2022-08-21T11:11:46;100903.66;;;18.25;94.23
49455;BME280;49011;64.658;21.218;2022-08-21T11:14:21;100900.58;;;18.84;92.82
49455;BME280;49011;64.658;21.218;2022-08-21T11:16:57;100896.15;;;18.64;93.31
49455;BME280;49011;64.658;21.218;2022-08-21T11:19:32;100893.69;;;18.64;94.93
49455;BME280;49011;64.658;21.218;2022-08-21T11:22:08;100889.17;;;18.67;93.69
49455;BME280;49011;64.658;21.218;2022-08-21T11:24:44;100882.37;;;18.52;94.69
49455;BME280;49011;64.658;21.218;2022-08-21T11:27:24;100883.54;;;18.67;92.70
49455;BME280;49011;64.658;21.218;2022-08-21T11:29:56;100884.81;;;19.00;92.45
49455;BME280;49011;64.658;21.218;2022-08-21T11:32:37;100885.96;;;18.64;94.71
49455;BME280;49011;64.658;21.218;2022-08-21T11:35:13;100885.59;;;18.41;94.90
49455;BME280;49011;64.658;21.218;2022-08-21T11:37:55;100885.65;;;18.51;93.12
49455;BME280;49011;64.658;21.218;2022-08-21T11:40:41;100884.96;;;18.95;93.65
49455;BME280;49011;64.658;21.218;2022-08-21T11:43:16;100885.90;;;18.27;93.64
49455;BME280;49011;64.658;21.218;2022-08-21T11:45:50;100885.93;;;18.46;95.63
49455;BME280;49011;64.658;21.218;2022-08-21T11:48:31;100885.01;;;18.59;94.73
49455;BME280;49011;64.658;21.218;2022-08-21T11:51:06;100879.88;;;18.66;93.14
49455;BME280;49011;64.658;21.218;2022-08-21T11:53:40;100876.87;;;18.66;93.39
49455;BME280;49011;64.658;21.218;2022-08-21T11:56:14;100876.61;;;18.96;92.33
49455;BME280;49011;64.658;21.218;2022-08-21T11:58:45;100872.55;;;18.69;93.52
49455;BME280;49011;64.658;21.218;2022-08-21T12:01:17;100870.35;;;18.52;93.95
49455;BME280;49011;64.658;21.218;2022-08-21T12:03:56;100869.57;;;18.63;95.24
49455;BME280;49011;64.658;21.218;2022-08-21T12:06:30;100866.60;;;18.71;93.24
49455;BME280;49011;64.658;21.218;2022-08-21T12:09:00;100870.66;;;18.93;93.45
49455;BME280;49011;64.658;21.218;2022-08-21T12:11:28;100871.08;;;19.06;93.64
49455;BME280;49011;64.658;21.218;2022-08-21T12:14:11;100874.79;;;19.22;91.01
49455;BME280;49011;64.658;21.218;2022-08-21T12:16:42;100870.98;;;18.70;93.43
49455;BME280;49011;64.658;21.218;2022-08-21T12:19:12;100875.62;;;19.11;92.25
49455;BME280;49011;64.658;21.218;2022-08-21T12:21:50;100869.38;;;18.93;93.10
49455;BME280;49011;64.658;21.218;2022-08-21T12:24:20;100873.25;;;18.60;91.82
49455;BME280;49011;64.658;21.218;2022-08-21T12:27:01;100866.30;;;18.80;93.11
49455;BME280;49011;64.658;21.218;2022-08-21T12:29:46;100874.38;;;18.93;92.67
49455;BME280;49011;64.658;21.218;2022-08-21T12:32:24;100876.70;;;18.86;92.07
49455;BME280;49011;64.658;21.218;2022-08-21T12:34:57;100875.37;;;19.22;91.30
49455;BME280;49011;64.658;21.218;2022-08-21T12:37:38;100870.23;;;18.78;92.92
49455;BME280;49011;64.658;21.218;2022-08-21T12:40:14;100870.04;;;19.16;90.84
49455;BME280;49011;64.658;21.218;2022-08-21T12:42:48;100868.16;;;19.61;89.57
49455;BME280;49011;64.658;21.218;2022-08-21T12:45:20;100860.22;;;18.75;93.48
49455;BME280;49011;64.658;21.218;2022-08-21T12:47:56;100859.36;;;18.87;92.09
49455;BME280;49011;64.658;21.218;2022-08-21T12:50:40;100859.08;;;19.18;90.97